Time;durP1;ratioP1;P1;durP2;ratioP2;P2;SDS_P1;SDS_P2;PMS_P1;PMS_P2;Temp;Humidity;BMP_temperature;BMP_pressure;BME280_temperature;BME280_humidity;BME280_pressure;Samples;Min_cycle;Max_cycle;Signal;HPM_P1;HPM_P2
2022/06/04 08:08:37;;;;;;;1.42;1.30;;;;;;;31.04;43.63;98941.41;5087710;27;1389774;-95
2022/06/04 08:11:49;;;;;;;2.55;1.70;;;;;;;32.10;41.32;99060.38;5091655;28;21271;-91
2022/06/04 08:13:49;;;;;;;4.35;1.80;;;;;;;31.57;43.69;99025.44;5086181;28;20430;-90
2022/06/04 08:16:15;;;;;;;2.88;1.60;;;;;;;30.89;45.38;99077.59;5082570;28;20035;-94
2022/06/04 08:18:41;;;;;;;1.67;1.58;;;;;;;31.13;44.39;99039.94;5072748;28;20028;-92
2022/06/04 08:21:07;;;;;;;4.82;1.20;;;;;;;31.28;44.70;99027.78;5073117;28;20036;-92
2022/06/04 08:23:33;;;;;;;10.30;2.33;;;;;;;31.39;44.11;99076.69;5092651;28;20487;-92
2022/06/04 08:25:58;;;;;;;2.03;1.25;;;;;;;31.20;44.70;99073.47;5111619;28;20059;-90
2022/06/04 08:28:24;;;;;;;2.63;1.50;;;;;;;30.71;42.46;99040.28;5092930;28;20036;-93
2022/06/04 08:31:04;;;;;;;1.10;1.10;;;;;;;31.32;43.48;99028.91;5092828;28;20122;-92
2022/06/04 08:33:30;;;;;;;1.95;1.67;;;;;;;32.17;41.97;99071.06;5097760;28;20047;-95
2022/06/04 08:35:55;;;;;;;1.23;1.10;;;;;;;32.10;40.17;99074.69;5112220;28;20024;-94
2022/06/04 08:38:21;;;;;;;1.30;1.20;;;;;;;31.56;42.20;99052.50;5073710;28;20029;-94
2022/06/04 08:40:53;;;;;;;1.75;1.23;;;;;;;31.97;42.85;99060.63;5089274;28;20039;-96
2022/06/04 08:43:42;;;;;;;2.05;1.45;;;;;;;32.49;40.86;99063.88;5072465;28;20030;-94
2022/06/04 08:46:19;;;;;;;1.33;1.23;;;;;;;33.29;40.68;99053.06;5083853;28;20035;-94
2022/06/04 08:48:45;;;;;;;2.97;1.93;;;;;;;33.65;39.77;99064.00;5091009;28;20028;-94
2022/06/04 08:51:37;;;;;;;3.55;1.23;;;;;;;34.01;37.41;99062.69;5091784;28;20280;-95
2022/06/04 08:57:32;;;;;;;3.75;1.98;;;;;;;33.45;39.64;99022.19;5069088;28;20033;-95
2022/06/04 09:00:06;;;;;;;3.28;1.83;;;;;;;33.22;40.28;99055.97;5106182;28;20547;-93
2022/06/04 09:03:09;;;;;;;1.25;1.15;;;;;;;33.41;38.91;99041.88;5085214;28;20054;-94
2022/06/04 09:06:16;;;;;;;2.40;1.52;;;;;;;33.26;39.00;99048.50;5087144;28;20415;-93
2022/06/04 09:08:41;;;;;;;1.40;1.08;;;;;;;32.60;40.38;99011.94;5085232;28;20060;-91
2022/06/04 09:11:17;;;;;;;2.33;1.38;;;;;;;32.47;41.92;99021.53;5071596;28;20078;-91
2022/06/04 09:13:48;;;;;;;2.85;1.48;;;;;;;32.06;41.35;99008.56;5071578;28;20113;-92
2022/06/04 09:16:26;;;;;;;1.33;1.20;;;;;;;32.00;40.59;99016.59;5078923;28;20062;-91
2022/06/04 09:18:58;;;;;;;3.03;1.60;;;;;;;32.14;41.82;99023.59;5093878;28;20032;-91
2022/06/04 09:21:31;;;;;;;1.27;1.02;;;;;;;31.69;42.78;98984.50;5058476;28;20475;-94
2022/06/04 09:23:57;;;;;;;1.88;1.48;;;;;;;32.14;42.19;99006.44;5079562;28;20028;-88
2022/06/04 09:26:32;;;;;;;2.58;1.58;;;;;;;31.81;42.49;98979.88;5075496;28;20017;-89
2022/06/04 09:28:57;;;;;;;5.20;2.53;;;;;;;31.87;44.22;98985.38;5057947;28;20032;-90
2022/06/04 09:31:41;;;;;;;3.55;1.80;;;;;;;32.40;43.08;99025.19;5075662;28;20040;-90
2022/06/04 09:34:14;;;;;;;1.27;1.17;;;;;;;31.82;42.21;99015.72;5075432;28;20028;-89
2022/06/04 09:36:42;;;;;;;5.50;1.58;;;;;;;31.52;44.06;99010.03;5073747;28;20024;-92
2022/06/04 09:39:27;;;;;;;3.42;1.65;;;;;;;31.53;45.22;99008.69;5076284;28;20020;-91
2022/06/04 09:41:55;;;;;;;2.63;1.67;;;;;;;30.94;46.38;98939.66;5077629;28;20032;-91
2022/06/04 09:44:22;;;;;;;10.32;1.45;;;;;;;31.15;45.62;99011.59;5077760;28;20024;-88
2022/06/04 09:46:51;;;;;;;4.95;1.42;;;;;;;31.19;44.29;98963.44;5064166;28;20503;-90
2022/06/04 09:49:32;;;;;;;1.15;1.10;;;;;;;31.08;44.45;98978.09;5057767;28;20030;-92
2022/06/04 09:52:00;;;;;;;1.70;1.20;;;;;;;31.15;44.86;99005.13;5065775;28;20071;-89
2022/06/04 09:54:29;;;;;;;3.20;1.20;;;;;;;31.19;42.93;99005.50;5057259;28;20082;-92
2022/06/04 09:57:02;;;;;;;2.10;1.45;;;;;;;31.44;45.83;98981.50;5070049;28;20035;-89
2022/06/04 09:59:30;;;;;;;11.20;4.05;;;;;;;31.37;41.37;98928.00;5094977;28;20483;-90
2022/06/04 10:01:56;;;;;;;2.00;1.30;;;;;;;31.76;42.37;98982.97;5078065;28;20024;-94
2022/06/04 10:04:21;;;;;;;3.15;1.05;;;;;;;31.56;40.93;98938.22;5078246;28;20117;-91
2022/06/04 10:06:47;;;;;;;3.58;1.50;;;;;;;31.33;41.38;98981.91;5067143;28;20071;-93
2022/06/04 10:12:07;;;;;;;2.22;1.25;;;;;;;31.47;41.45;98936.72;5075842;28;20040;-91
2022/06/04 10:14:38;;;;;;;0.93;0.90;;;;;;;32.26;40.17;98973.22;5057419;28;20071;-90
2022/06/04 10:17:07;;;;;;;3.10;1.23;;;;;;;31.72;39.81;98916.84;5074180;28;20028;-92
2022/06/04 10:19:34;;;;;;;7.72;1.77;;;;;;;32.19;42.26;98942.56;5078475;28;20488;-95
2022/06/04 10:22:08;;;;;;;4.45;1.50;;;;;;;32.53;39.78;98984.13;5077459;28;20066;-92
2022/06/04 10:24:42;;;;;;;3.35;2.25;;;;;;;32.23;37.83;98953.59;5084430;28;20526;-92
2022/06/04 10:27:55;;;;;;;1.13;0.95;;;;;;;32.05;39.17;98889.81;5065834;28;20081;-96
2022/06/04 10:30:26;;;;;;;2.60;1.70;;;;;;;32.27;42.83;98960.44;5063350;28;20029;-86
2022/06/04 10:33:13;;;;;;;6.97;2.08;;;;;;;32.25;38.33;98928.78;5075610;28;20457;-87
2022/06/04 10:35:57;;;;;;;3.08;1.45;;;;;;;31.82;36.43;98960.66;5076035;28;20479;-85
2022/06/04 10:38:33;;;;;;;1.65;1.30;;;;;;;32.02;40.45;98944.53;5056202;28;20044;-89
2022/06/04 10:41:56;;;;;;;1.70;1.42;;;;;;;32.28;39.77;98929.75;5055933;28;20135;-89
2022/06/04 10:44:35;;;;;;;1.38;1.27;;;;;;;31.79;41.37;98950.34;4973183;28;20034;-94
2022/06/04 10:47:06;;;;;;;5.90;1.60;;;;;;;32.09;40.90;98940.88;5074681;28;20514;-89
2022/06/04 10:49:41;;;;;;;1.83;1.40;;;;;;;31.42;39.93;98900.56;5056047;28;20040;-87
2022/06/04 10:52:31;;;;;;;5.65;1.88;;;;;;;31.38;40.96;98880.22;5059712;28;20039;-87
2022/06/04 10:55:19;;;;;;;3.47;2.22;;;;;;;31.49;41.64;98920.53;5077863;28;20028;-92
2022/06/04 10:58:26;;;;;;;5.28;1.27;;;;;;;31.19;40.22;98874.19;5071666;28;20055;-87
2022/06/04 11:00:55;;;;;;;1.40;1.30;;;;;;;31.40;41.87;98926.88;5032137;28;20040;-88
2022/06/04 11:03:37;;;;;;;2.58;1.50;;;;;;;30.93;42.62;98915.28;5070785;28;20036;-87
2022/06/04 11:06:18;;;;;;;3.50;1.17;;;;;;;31.05;40.66;98905.03;5085175;28;20031;-87
2022/06/04 11:08:59;;;;;;;3.10;1.85;;;;;;;31.31;41.17;98884.59;5069927;28;20052;-90
2022/06/04 11:11:37;;;;;;;2.78;0.90;;;;;;;31.37;40.38;98898.69;5072486;28;20036;-90
2022/06/04 11:14:10;;;;;;;2.92;1.23;;;;;;;31.29;41.66;98890.13;5071392;28;20028;-90
2022/06/04 11:16:46;;;;;;;0.88;0.88;;;;;;;31.09;38.86;98894.75;5073018;28;20035;-89
2022/06/04 11:19:17;;;;;;;3.13;0.70;;;;;;;30.96;38.32;98859.94;5089795;28;20028;-90
2022/06/04 11:22:03;;;;;;;3.67;0.98;;;;;;;30.76;40.42;98846.66;5071885;28;20026;-92
2022/06/04 11:24:46;;;;;;;1.63;1.08;;;;;;;30.55;40.05;98870.44;5068135;28;20032;-90
2022/06/04 11:27:21;;;;;;;4.25;1.80;;;;;;;30.78;40.29;98856.16;5068921;28;20576;-90
2022/06/04 11:29:50;;;;;;;1.40;1.20;;;;;;;30.77;40.18;98876.69;5064794;28;20040;-90
2022/06/04 11:32:32;;;;;;;1.27;1.10;;;;;;;30.76;40.72;98873.09;5053569;28;20053;-92
2022/06/04 11:35:10;;;;;;;1.45;1.35;;;;;;;30.06;41.79;98775.94;5067395;28;20040;-90
2022/06/04 11:37:54;;;;;;;;;;;;;;;30.43;40.51;98882.78;5072119;28;20024;-90
2022/06/04 11:40:56;;;;;;;1.35;1.20;;;;;;;30.46;39.85;98873.81;5052369;28;19921;-87
2022/06/04 11:43:35;;;;;;;1.30;1.20;;;;;;;30.73;41.87;98875.00;5052279;28;20125;-86
2022/06/04 11:46:07;;;;;;;0.85;0.82;;;;;;;30.53;39.83;98866.63;5062379;28;20029;-89
2022/06/04 11:48:56;;;;;;;1.38;1.27;;;;;;;30.57;39.84;98861.31;5051653;28;20029;-88
2022/06/04 11:51:21;;;;;;;1.27;1.17;;;;;;;30.80;39.18;98875.56;5064867;28;20500;-89
2022/06/04 11:54:00;;;;;;;1.75;1.48;;;;;;;30.73;38.16;98834.31;5057775;28;20055;-89
2022/06/04 11:56:41;;;;;;;1.25;1.13;;;;;;;30.88;38.69;98871.34;5066919;28;20078;-88
2022/06/04 11:59:15;;;;;;;1.35;0.90;;;;;;;30.33;38.29;98814.91;5052521;28;20044;-89
2022/06/04 12:01:46;;;;;;;3.03;1.55;;;;;;;30.55;39.09;98847.63;5052420;28;20028;-86
2022/06/04 12:04:50;;;;;;;1.83;1.23;;;;;;;30.60;39.15;98863.03;5051931;28;20499;-85
2022/06/04 12:07:30;;;;;;;2.13;1.25;;;;;;;30.63;38.26;98845.50;5064252;28;20166;-88
2022/06/04 12:10:17;;;;;;;3.45;1.17;;;;;;;30.27;37.50;98805.00;5052663;28;20040;-91
2022/06/04 12:13:01;;;;;;;;;;;;;;;30.61;37.21;98853.13;5052307;28;20060;-87
2022/06/04 12:15:41;;;;;;;1.00;1.00;;;;;;;30.45;36.55;98832.38;5064508;28;19908;-86
2022/06/04 12:18:22;;;;;;;0.80;0.80;;;;;;;30.41;36.94;98837.72;5071271;28;20032;-86
2022/06/04 12:26:36;;;;;;;2.90;1.27;;;;;;;30.50;35.12;98848.56;5071409;28;20043;-87
2022/06/04 12:29:31;;;;;;;1.75;0.80;;;;;;;30.57;35.59;98847.03;5071416;28;20025;-85
2022/06/04 12:32:06;;;;;;;3.10;1.30;;;;;;;30.46;35.68;98813.19;5063024;28;20025;-87
2022/06/04 12:34:38;;;;;;;0.52;0.52;;;;;;;30.70;34.51;98833.34;5072257;28;20107;-85
2022/06/04 12:37:19;;;;;;;1.33;1.02;;;;;;;30.34;34.70;98804.25;5072881;28;20032;-85
2022/06/04 12:39:44;;;;;;;1.35;1.10;;;;;;;30.35;35.43;98825.75;5071935;28;20056;-84
2022/06/04 12:42:14;;;;;;;0.93;0.93;;;;;;;30.63;35.26;98830.50;5071152;28;20543;-84
2022/06/04 12:44:54;;;;;;;1.33;1.00;;;;;;;30.59;34.42;98785.25;5071218;28;20097;-85
2022/06/04 12:47:26;;;;;;;2.22;1.50;;;;;;;31.18;32.63;98841.25;5072792;28;20033;-85
2022/06/04 12:49:58;;;;;;;1.15;0.80;;;;;;;31.08;34.64;98795.44;5070988;28;20036;-84
2022/06/04 12:52:44;;;;;;;2.42;1.23;;;;;;;31.42;30.46;98841.34;5071079;28;20422;-84
2022/06/04 12:55:47;;;;;;;3.03;1.10;;;;;;;31.26;31.43;98825.63;5074378;28;20035;-86
2022/06/04 12:58:24;;;;;;;1.23;0.90;;;;;;;31.37;33.81;98816.63;5041693;28;20044;-85
2022/06/04 13:01:03;;;;;;;3.70;2.25;;;;;;;31.23;32.08;98806.00;5056333;28;20451;-84
2022/06/04 13:03:40;;;;;;;2.47;1.30;;;;;;;31.22;31.93;98768.16;5075340;28;20024;-84
2022/06/04 13:09:36;;;;;;;1.17;0.93;;;;;;;31.56;31.68;98770.44;5085962;28;20075;-84
2022/06/04 13:12:08;;;;;;;1.80;1.25;;;;;;;31.85;31.65;98791.63;5077807;28;20036;-84
2022/06/04 13:14:40;;;;;;;1.23;1.08;;;;;;;31.87;31.84;98793.91;5077621;28;20028;-87
2022/06/04 13:17:33;;;;;;;1.02;0.93;;;;;;;31.63;33.40;98746.81;5078539;28;20032;-85
2022/06/04 13:20:07;;;;;;;2.63;1.30;;;;;;;32.18;31.09;98788.75;5095358;28;20028;-85
2022/06/04 13:22:47;;;;;;;2.17;1.00;;;;;;;32.06;32.89;98794.16;5077660;28;20028;-83
2022/06/04 13:25:16;;;;;;;0.82;0.82;;;;;;;32.32;36.24;98787.84;5080528;28;20047;-87
2022/06/04 13:27:50;;;;;;;5.35;1.10;;;;;;;32.69;34.07;98779.50;5063460;28;20020;-86
2022/06/04 13:30:29;;;;;;;3.70;2.22;;;;;;;32.20;33.75;98752.50;5076120;28;20438;-87
2022/06/04 13:33:12;;;;;;;1.33;1.10;;;;;;;32.08;34.44;98784.97;5075652;28;20044;-86
2022/06/04 13:35:44;;;;;;;0.98;0.98;;;;;;;31.80;34.62;98761.19;5057885;28;20025;-85
2022/06/04 13:38:22;;;;;;;2.00;1.50;;;;;;;32.15;32.81;98778.47;5076278;28;20020;-86
2022/06/04 13:40:49;;;;;;;1.77;0.77;;;;;;;32.63;33.24;98776.13;5060689;28;20021;-84
2022/06/04 13:43:15;;;;;;;2.35;1.70;;;;;;;32.67;33.04;98785.81;5082861;28;20468;-83
2022/06/04 13:45:40;;;;;;;2.15;1.20;;;;;;;33.33;32.76;98806.31;5077887;28;20064;-84
2022/06/04 13:48:32;;;;;;;1.02;0.70;;;;;;;33.68;29.84;98799.16;5076838;28;20494;-83
2022/06/04 13:50:58;;;;;;;1.77;0.70;;;;;;;34.17;27.32;98765.75;5063752;28;20032;-83
2022/06/04 13:53:28;;;;;;;1.05;0.95;;;;;;;35.03;28.49;98797.47;5057418;28;20039;-82
2022/06/04 13:56:07;;;;;;;2.25;1.50;;;;;;;34.15;28.62;98799.97;5056623;28;20518;-85
2022/06/04 13:58:37;;;;;;;1.02;0.60;;;;;;;34.01;28.08;98804.59;5070910;28;20070;-87
2022/06/04 14:01:08;;;;;;;1.02;0.98;;;;;;;34.13;27.78;98802.69;5077140;28;20028;-87
2022/06/04 14:03:44;;;;;;;0.80;0.80;;;;;;;34.30;28.20;98796.91;5077422;28;20127;-89
2022/06/04 14:06:10;;;;;;;1.02;0.90;;;;;;;33.75;29.21;98786.84;5073456;28;20024;-87
2022/06/04 14:08:51;;;;;;;1.63;0.73;;;;;;;33.63;29.42;98788.72;5076247;28;20039;-86
2022/06/04 14:11:34;;;;;;;2.92;1.38;;;;;;;33.70;29.45;98792.84;5079434;28;20021;-84
2022/06/04 14:14:30;;;;;;;1.38;0.90;;;;;;;33.55;29.59;98724.25;5056729;28;20472;-85
2022/06/04 14:17:13;;;;;;;0.80;0.80;;;;;;;33.86;30.29;98728.97;5057329;28;20024;-85
2022/06/04 14:19:59;;;;;;;1.30;1.00;;;;;;;33.28;31.09;98767.19;5055514;28;20619;-88
2022/06/04 14:22:58;;;;;;;3.03;0.93;;;;;;;32.86;30.85;98724.38;5074972;28;20064;-82
2022/06/04 14:25:24;;;;;;;1.10;1.00;;;;;;;32.98;31.58;98683.19;5071923;28;20039;-87
2022/06/04 14:28:15;;;;;;;2.15;0.93;;;;;;;33.10;32.08;98740.69;5076128;28;20039;-87
2022/06/04 14:31:10;;;;;;;1.10;1.02;;;;;;;33.12;31.47;98746.56;5062348;28;20052;-87
2022/06/04 14:33:38;;;;;;;2.47;1.40;;;;;;;33.04;31.43;98757.34;5076630;28;20088;-87
2022/06/04 14:36:15;;;;;;;1.55;1.25;;;;;;;32.80;30.92;98718.91;5094671;28;20031;-87
2022/06/04 14:38:42;;;;;;;2.40;1.40;;;;;;;33.38;31.73;98745.88;5094064;28;20560;-87
2022/06/04 14:41:11;;;;;;;2.80;0.93;;;;;;;33.76;31.48;98756.81;5094474;28;20026;-86
2022/06/04 14:43:49;;;;;;;1.48;1.17;;;;;;;33.47;29.34;98712.91;5076452;28;20024;-87
2022/06/04 14:46:37;;;;;;;1.27;1.10;;;;;;;33.67;30.57;98762.47;5076284;28;20073;-86
2022/06/04 14:49:08;;;;;;;1.10;1.00;;;;;;;33.01;33.21;98758.56;5094782;28;20032;-87
2022/06/04 14:52:22;;;;;;;1.58;1.13;;;;;;;33.10;32.12;98757.84;5076141;28;20028;-88
2022/06/04 14:54:52;;;;;;;2.28;1.40;;;;;;;32.91;34.03;98744.19;5068886;28;20088;-85
2022/06/04 14:57:20;;;;;;;1.48;1.25;;;;;;;32.72;32.55;98735.44;5076690;28;20087;-86
2022/06/04 15:00:25;;;;;;;1.60;1.20;;;;;;;32.86;31.88;98750.91;5076077;28;20085;-86
2022/06/04 15:03:49;;;;;;;1.08;1.00;;;;;;;32.97;36.27;98750.41;5094196;28;20028;-86
2022/06/04 15:06:31;;;;;;;1.77;1.17;;;;;;;32.18;39.71;98740.91;5014956;28;20480;-87
2022/06/04 15:09:04;;;;;;;8.63;3.05;;;;;;;31.54;43.03;98753.88;5093648;28;20467;-86
2022/06/04 15:11:51;;;;;;;1.88;1.20;;;;;;;31.17;43.06;98697.75;5075793;28;20021;-86
2022/06/04 15:14:36;;;;;;;;;;;;;;;31.14;44.21;98741.75;5076996;28;20067;-86
2022/06/04 15:17:34;;;;;;;10.60;3.15;;;;;;;30.86;44.93;98694.28;5092554;28;19919;-87
2022/06/04 15:20:12;;;;;;;1.40;1.00;;;;;;;30.75;44.62;98723.22;5071502;28;20169;-86
2022/06/04 15:23:05;;;;;;;1.95;1.55;;;;;;;30.42;45.88;98744.38;5092585;28;20039;-86
2022/06/04 15:25:40;;;;;;;5.72;1.67;;;;;;;30.11;46.22;98695.19;5075969;28;20048;-86
2022/06/04 15:33:52;;;;;;;1.10;1.00;;;;;;;30.17;46.36;98698.63;5093426;28;20055;-85
2022/06/04 15:34:10;;;;;;;;;;;;;;;30.39;45.64;98743.41;5094347;28;20038;-86
2022/06/04 15:36:48;;;;;;;1.17;1.08;;;;;;;30.08;45.30;98702.06;5075366;28;20390;-86
2022/06/04 15:39:30;;;;;;;2.45;1.42;;;;;;;29.88;45.65;98667.47;5075310;28;20024;-86
2022/06/04 15:42:16;;;;;;;0.90;0.82;;;;;;;30.32;45.04;98738.50;5075339;28;20054;-86
2022/06/04 15:45:04;;;;;;;4.30;1.05;;;;;;;30.28;45.47;98732.41;5075470;28;20403;-86
2022/06/04 15:47:48;;;;;;;2.55;1.38;;;;;;;30.29;45.10;98739.66;5075352;28;20023;-87
2022/06/04 15:56:05;;;;;;;1.15;0.98;;;;;;;30.15;46.37;98727.69;5093792;28;20495;-87
2022/06/04 15:58:50;;;;;;;1.33;1.23;;;;;;;29.80;45.75;98686.63;5075404;28;20123;-87
2022/06/04 16:01:30;;;;;;;2.70;1.48;;;;;;;29.88;45.58;98695.19;5075377;28;20543;-87
2022/06/04 16:04:17;;;;;;;3.42;1.33;;;;;;;29.79;46.27;98705.06;5075423;28;20042;-87
2022/06/04 16:07:07;;;;;;;1.48;1.38;;;;;;;29.96;46.26;98713.06;5075478;28;20024;-87
2022/06/04 16:09:33;;;;;;;1.65;1.20;;;;;;;30.13;46.08;98724.66;5074525;28;20044;-87
2022/06/04 16:12:15;;;;;;;3.53;1.45;;;;;;;30.22;47.06;98735.47;5093035;28;20032;-87
2022/06/04 16:15:06;;;;;;;7.78;3.33;;;;;;;30.27;46.37;98742.28;5075921;28;20035;-87
2022/06/04 16:17:40;;;;;;;5.22;2.15;;;;;;;30.49;46.32;98737.94;5075181;28;20054;-87
2022/06/04 16:20:24;;;;;;;2.47;1.67;;;;;;;30.39;45.10;98702.75;5092874;28;20032;-87
2022/06/04 16:22:52;;;;;;;4.43;1.20;;;;;;;30.80;44.07;98747.19;5093422;28;20043;-88
2022/06/04 16:25:40;;;;;;;2.25;1.45;;;;;;;30.78;46.07;98747.75;5092968;28;20024;-87
2022/06/04 16:28:09;;;;;;;4.32;1.52;;;;;;;30.35;44.20;98734.50;5074836;28;20510;-87
2022/06/04 16:30:36;;;;;;;1.27;1.17;;;;;;;30.01;45.90;98749.16;5078915;28;20066;-87
2022/06/04 16:33:19;;;;;;;8.50;1.60;;;;;;;30.12;45.38;98753.72;5078855;28;20032;-87
2022/06/04 16:35:47;;;;;;;1.58;1.20;;;;;;;29.83;46.73;98685.50;5079419;28;20547;-87
2022/06/04 16:44:38;;;;;;;3.30;1.23;;;;;;;30.42;47.42;98758.63;5097410;28;20083;-90
2022/06/04 16:47:06;;;;;;;1.90;1.52;;;;;;;30.24;45.96;98763.41;5096999;28;20123;-87
2022/06/04 16:49:49;;;;;;;3.10;1.33;;;;;;;29.79;45.86;98715.69;5096756;28;20103;-87
2022/06/04 16:52:20;;;;;;;2.88;1.40;;;;;;;29.80;46.15;98722.91;5079064;28;20032;-87
2022/06/04 16:54:48;;;;;;;3.03;1.40;;;;;;;29.10;46.84;98657.88;5078914;28;20023;-88
2022/06/04 16:57:13;;;;;;;;;;;;;;;29.61;47.32;98768.06;5079515;28;20066;-87
2022/06/04 16:59:39;;;;;;;3.78;1.55;;;;;;;29.46;48.13;98758.19;5078583;28;19908;-87
2022/06/04 17:02:26;;;;;;;4.20;1.67;;;;;;;28.79;49.22;98679.78;5078537;28;20038;-88
2022/06/04 17:05:16;;;;;;;1.50;1.33;;;;;;;29.17;49.53;98762.44;5079039;28;20050;-88
2022/06/04 17:07:54;;;;;;;1.10;1.00;;;;;;;29.05;50.53;98759.16;5078669;28;20138;-88
2022/06/04 17:10:41;;;;;;;5.53;1.30;;;;;;;28.92;51.21;98756.44;5097453;28;20044;-89
2022/06/04 17:13:30;;;;;;;1.90;1.35;;;;;;;28.83;51.18;98765.47;5079042;28;20120;-88
2022/06/04 17:16:18;;;;;;;4.97;1.38;;;;;;;28.66;51.41;98756.66;5078291;28;20065;-88
2022/06/04 17:19:02;;;;;;;;;;;;;;;28.61;51.45;98763.25;5078587;28;20058;-88
2022/06/04 17:21:39;;;;;;;1.75;1.65;;;;;;;28.42;52.28;98791.16;5095961;28;19981;-88
2022/06/04 17:24:31;;;;;;;4.53;1.67;;;;;;;28.11;52.68;98753.97;5096491;28;20039;-88
2022/06/04 17:27:26;;;;;;;1.95;1.20;;;;;;;28.15;53.43;98787.75;5070382;28;20032;-88
2022/06/04 17:30:23;;;;;;;1.33;1.20;;;;;;;27.89;53.75;98760.22;5078576;28;20046;-88
2022/06/04 17:33:24;;;;;;;3.53;1.92;;;;;;;27.56;54.67;98729.81;5077855;28;20020;-88
2022/06/04 17:36:08;;;;;;;2.58;1.20;;;;;;;27.69;54.11;98778.00;5095217;28;20051;-88
2022/06/04 17:38:51;;;;;;;1.65;1.20;;;;;;;27.54;54.56;98781.47;5078645;28;20032;-88
2022/06/04 17:41:36;;;;;;;2.25;1.17;;;;;;;27.51;54.91;98783.31;5077736;28;20043;-88
2022/06/04 17:44:04;;;;;;;1.55;1.20;;;;;;;27.26;55.06;98764.25;5078107;28;20024;-88
2022/06/04 17:46:29;;;;;;;3.50;1.42;;;;;;;27.30;57.97;98785.34;5078324;28;20064;-88
2022/06/04 17:48:55;;;;;;;1.90;1.30;;;;;;;26.92;59.67;98759.31;5077885;28;20067;-88
2022/06/04 17:51:20;;;;;;;3.85;1.35;;;;;;;27.11;60.60;98799.66;5077433;28;20024;-88
2022/06/04 17:53:47;;;;;;;1.83;1.58;;;;;;;26.67;62.37;98744.59;5077726;28;20028;-88
2022/06/04 17:56:12;;;;;;;2.83;2.35;;;;;;;26.83;62.93;98784.47;5095600;28;20111;-88
2022/06/04 17:58:38;;;;;;;1.70;1.15;;;;;;;26.70;63.83;98788.84;5078320;28;20055;-88
2022/06/04 18:01:04;;;;;;;2.45;2.10;;;;;;;26.67;64.41;98797.69;5077488;28;20032;-88
2022/06/04 18:03:30;;;;;;;5.75;1.75;;;;;;;26.45;67.20;98787.56;5094621;28;20467;-88
2022/06/04 18:05:56;;;;;;;2.13;1.15;;;;;;;26.27;69.01;98794.06;5077318;28;20028;-88
2022/06/04 18:08:22;;;;;;;1.48;1.13;;;;;;;25.70;70.58;98741.72;5094001;28;20024;-88
2022/06/04 18:10:48;;;;;;;1.58;1.30;;;;;;;25.66;73.25;98756.19;5077495;28;20544;-88
2022/06/04 18:13:15;;;;;;;2.58;1.77;;;;;;;25.67;74.85;98771.88;5095363;28;20036;-88
2022/06/04 18:15:43;;;;;;;1.67;1.33;;;;;;;25.22;76.15;98720.06;5076952;28;20142;-88
2022/06/04 18:18:08;;;;;;;;;;;;;;;25.60;77.37;98795.13;5077998;28;20557;-87
2022/06/04 18:20:34;;;;;;;1.90;1.50;;;;;;;25.43;79.73;98797.44;5077550;28;19912;-88
2022/06/04 18:22:59;;;;;;;1.75;1.60;;;;;;;25.27;81.79;98815.38;5077364;28;20395;-88
2022/06/04 18:25:25;;;;;;;2.60;1.63;;;;;;;25.08;83.22;98804.81;5077904;28;20089;-88
2022/06/04 18:27:51;;;;;;;3.17;1.75;;;;;;;24.62;82.77;98752.16;5076923;28;20032;-88
2022/06/04 18:30:21;;;;;;;1.42;1.35;;;;;;;24.53;81.82;98757.44;5095612;28;20038;-88
2022/06/04 18:32:47;;;;;;;2.30;1.85;;;;;;;24.78;82.06;98823.13;5077085;28;20024;-87
2022/06/04 18:35:13;;;;;;;2.70;1.77;;;;;;;24.74;82.23;98823.44;5077431;28;20059;-88
2022/06/04 18:37:41;;;;;;;6.40;1.88;;;;;;;24.56;82.70;98798.72;5076776;28;20039;-88
2022/06/04 18:40:07;;;;;;;4.73;1.73;;;;;;;24.42;83.26;98789.38;5077059;28;20035;-88
2022/06/04 18:56:13;;;;;;;2.90;1.65;;;;;;;24.28;83.66;98844.22;5095002;28;20039;-88
2022/06/04 18:58:39;;;;;;;1.98;1.73;;;;;;;24.18;84.04;98843.75;5093387;28;20039;-88
2022/06/04 19:01:06;;;;;;;2.88;2.10;;;;;;;23.81;84.07;98798.38;5076622;28;20024;-87
2022/06/04 19:03:32;;;;;;;1.75;1.65;;;;;;;23.88;85.66;98851.41;5076245;28;20475;-87
2022/06/04 19:05:57;;;;;;;1.58;1.48;;;;;;;23.61;86.64;98843.91;5076166;28;20035;-86
2022/06/04 19:08:23;;;;;;;2.25;1.42;;;;;;;23.57;86.87;98832.16;5093699;28;20024;-87
2022/06/04 19:13:41;;;;;;;1.70;1.60;;;;;;;23.35;88.01;98827.34;5094405;28;20498;-87
2022/06/04 19:16:19;;;;;;;1.52;1.42;;;;;;;23.33;88.44;98844.06;5093099;28;20020;-87
2022/06/04 19:18:49;;;;;;;1.88;1.73;;;;;;;23.23;88.47;98825.88;5093893;28;20130;-88
2022/06/04 19:26:44;;;;;;;3.40;2.15;;;;;;;23.11;88.89;98837.22;5093948;28;20027;-88
2022/06/04 19:29:11;;;;;;;1.95;1.55;;;;;;;22.81;88.14;98790.44;5075889;28;20499;-88
2022/06/04 19:31:37;;;;;;;3.17;1.77;;;;;;;22.81;88.12;98794.03;5076157;28;20020;-88
2022/06/04 19:34:03;;;;;;;2.40;2.20;;;;;;;22.94;88.30;98830.88;5075711;28;20067;-88
2022/06/04 19:36:29;;;;;;;1.73;1.35;;;;;;;22.75;88.67;98821.47;5076215;28;20020;-87
2022/06/04 19:38:56;;;;;;;1.77;1.50;;;;;;;22.96;88.71;98853.69;5092567;28;20031;-87
2022/06/04 19:41:23;;;;;;;5.75;1.75;;;;;;;22.89;89.46;98857.03;5075890;28;20491;-87
2022/06/04 19:43:48;;;;;;;5.05;1.90;;;;;;;22.53;88.87;98777.22;5093585;28;20035;-87
2022/06/04 19:46:14;;;;;;;2.83;1.77;;;;;;;22.91;88.98;98833.94;5075594;28;20028;-87
2022/06/04 19:48:40;;;;;;;4.90;2.30;;;;;;;22.94;89.27;98838.56;5076168;28;20035;-88
2022/06/04 19:51:06;;;;;;;2.05;1.42;;;;;;;22.59;89.02;98797.69;5075734;28;20051;-89
2022/06/04 19:56:18;;;;;;;2.78;2.05;;;;;;;22.78;88.92;98831.72;5094167;28;20046;-89
2022/06/04 19:58:44;;;;;;;3.53;1.98;;;;;;;22.53;89.72;98810.22;5092615;28;20547;-89
2022/06/04 20:01:10;;;;;;;2.17;1.98;;;;;;;22.48;89.65;98820.25;5093451;28;20468;-89
2022/06/04 20:03:36;;;;;;;1.98;1.55;;;;;;;22.72;89.32;98856.31;5075326;28;20032;-89
2022/06/04 20:06:02;;;;;;;1.77;1.52;;;;;;;22.66;89.98;98855.53;5075391;28;20073;-89
2022/06/04 20:08:28;;;;;;;2.67;1.60;;;;;;;22.61;90.16;98856.28;5093118;28;20048;-89
2022/06/04 20:10:55;;;;;;;2.28;1.70;;;;;;;22.17;89.61;98806.47;5093508;28;20035;-88
2022/06/04 20:13:21;;;;;;;2.80;1.73;;;;;;;22.28;89.31;98823.31;5075903;28;20024;-86
2022/06/04 20:15:47;;;;;;;3.13;1.73;;;;;;;22.24;88.02;98801.06;5093217;28;20411;-86
2022/06/04 20:18:13;;;;;;;1.98;1.75;;;;;;;22.56;88.33;98860.66;5092940;28;20024;-86
2022/06/04 20:20:41;;;;;;;2.35;2.15;;;;;;;22.36;88.79;98832.81;5075167;28;20116;-86
2022/06/04 20:23:09;;;;;;;;;;;;;;;22.46;89.16;98859.41;5092399;28;20038;-87
2022/06/04 20:25:36;;;;;;;3.88;1.80;;;;;;;21.73;88.89;98762.97;5093169;28;19912;-87
2022/06/04 20:28:03;;;;;;;3.05;1.55;;;;;;;21.80;88.91;98799.00;5075198;28;20625;-87
2022/06/04 20:30:29;;;;;;;2.80;1.77;;;;;;;22.30;89.31;98871.44;5075342;28;20094;-87
2022/06/04 20:32:55;;;;;;;2.75;2.00;;;;;;;21.98;89.65;98827.94;5075044;28;20062;-88
2022/06/04 20:35:22;;;;;;;2.05;1.70;;;;;;;21.84;90.51;98841.72;5075226;28;20027;-87
2022/06/04 20:37:48;;;;;;;1.83;1.52;;;;;;;21.74;90.94;98832.00;5074998;28;20525;-87
2022/06/04 20:40:16;;;;;;;1.42;1.33;;;;;;;22.09;90.96;98884.22;5075135;28;20110;-87
2022/06/04 20:42:42;;;;;;;3.03;2.05;;;;;;;22.07;91.02;98884.72;5075112;28;20074;-88
2022/06/04 20:45:11;;;;;;;5.95;2.13;;;;;;;22.00;90.70;98864.78;5093002;28;20024;-87
2022/06/04 20:47:37;;;;;;;2.72;1.88;;;;;;;21.91;90.81;98848.88;5075542;28;20066;-88
2022/06/04 20:50:03;;;;;;;1.77;1.48;;;;;;;22.03;90.94;98875.78;5092998;28;20063;-87
2022/06/04 20:52:29;;;;;;;2.95;1.90;;;;;;;22.03;91.24;98880.63;5074967;28;20034;-87
2022/06/04 20:54:54;;;;;;;3.70;1.95;;;;;;;21.88;91.96;98855.53;5075094;28;20107;-87
2022/06/04 20:57:20;;;;;;;2.40;2.10;;;;;;;21.96;91.40;98861.44;5075159;28;20553;-87
2022/06/04 20:59:46;;;;;;;2.45;1.98;;;;;;;21.65;91.71;98820.97;5074945;28;20083;-87
2022/06/04 21:02:17;;;;;;;6.00;2.80;;;;;;;21.77;91.54;98850.66;5074827;28;20031;-87
2022/06/04 21:04:43;;;;;;;2.47;1.90;;;;;;;21.87;91.66;98843.53;5075669;28;20119;-88
2022/06/04 21:07:08;;;;;;;2.15;1.77;;;;;;;21.86;91.87;98838.41;5092874;28;20122;-87
2022/06/04 21:09:34;;;;;;;4.63;2.08;;;;;;;21.62;91.50;98807.19;5074890;28;20481;-85
2022/06/04 21:12:01;;;;;;;3.45;1.85;;;;;;;21.93;91.35;98855.53;5074855;28;20081;-87
2022/06/04 21:14:26;;;;;;;3.22;2.20;;;;;;;21.65;91.42;98829.41;5075468;28;20035;-87